Time;durP1;ratioP1;P1;durP2;ratioP2;P2;SDS_P1;SDS_P2;PMS_P1;PMS_P2;Temp;Humidity;BMP_temperature;BMP_pressure;BME280_temperature;BME280_humidity;BME280_pressure;Samples;Min_cycle;Max_cycle;Signal;HPM_P1;HPM_P2
2022/05/03 00:02:02;;;;;;;8.60;4.32;;;10.10;99.90;;;;;;5077034;28;20036;-64
2022/05/03 00:04:55;;;;;;;5.32;3.78;;;10.10;99.90;;;;;;5086976;28;20049;-63
2022/05/03 00:07:32;;;;;;;8.15;4.25;;;10.10;99.90;;;;;;5078310;28;20720;-63
2022/05/03 00:10:11;;;;;;;5.30;3.83;;;10.10;99.90;;;;;;5074660;28;20032;-63
2022/05/03 00:12:48;;;;;;;7.00;4.22;;;10.10;99.90;;;;;;5089158;28;20044;-63
2022/05/03 00:15:18;;;;;;;7.93;4.78;;;10.10;99.90;;;;;;5088541;28;20040;-64
2022/05/03 00:17:47;;;;;;;6.70;4.15;;;10.00;99.90;;;;;;5084903;28;20040;-63
2022/05/03 00:20:14;;;;;;;7.72;4.45;;;10.00;99.90;;;;;;5082347;28;20528;-63
2022/05/03 00:22:42;;;;;;;8.63;4.50;;;10.00;99.90;;;;;;5085432;28;20035;-63
2022/05/03 00:25:09;;;;;;;10.18;4.35;;;9.90;99.90;;;;;;5082519;28;20063;-63
2022/05/03 00:27:36;;;;;;;6.00;4.40;;;9.90;99.90;;;;;;5083519;28;20044;-63
2022/05/03 00:30:04;;;;;;;7.20;5.03;;;9.80;99.90;;;;;;5090239;28;20060;-64
2022/05/03 00:32:31;;;;;;;10.13;4.75;;;9.80;99.90;;;;;;5091878;28;20066;-63
2022/05/03 00:34:59;;;;;;;7.82;4.65;;;9.80;99.90;;;;;;5091310;28;20569;-63
2022/05/03 00:37:26;;;;;;;9.45;5.47;;;9.80;99.90;;;;;;5083276;28;20524;-63
2022/05/03 00:39:53;;;;;;;;;;;9.80;99.90;;;;;;5064921;28;20404;-63
2022/05/03 00:42:27;;;;;;;11.88;6.45;;;9.90;99.90;;;;;;5091705;28;19927;-63
2022/05/03 00:45:22;;;;;;;9.63;5.80;;;10.00;99.90;;;;;;5087060;28;20550;-63
2022/05/03 00:47:53;;;;;;;9.35;5.65;;;10.00;99.90;;;;;;5086325;28;20101;-63
2022/05/03 00:50:34;;;;;;;8.13;4.95;;;10.10;99.90;;;;;;5091255;28;20464;-64
2022/05/03 00:53:22;;;;;;;10.57;5.70;;;10.10;99.90;;;;;;5090559;28;20284;-63
2022/05/03 00:56:16;;;;;;;10.77;5.07;;;10.10;99.90;;;;;;5086265;28;20048;-63
2022/05/03 00:59:01;;;;;;;9.63;5.88;;;10.10;99.90;;;;;;5091570;28;20044;-63
2022/05/03 01:02:03;;;;;;;9.77;4.93;;;10.10;99.90;;;;;;5090702;28;20043;-63
2022/05/03 01:04:55;;;;;;;9.65;5.30;;;10.10;99.90;;;;;;5083546;28;20044;-63
2022/05/03 01:07:32;;;;;;;12.43;5.10;;;10.10;99.90;;;;;;5090916;28;20048;-63
2022/05/03 01:10:18;;;;;;;6.50;4.65;;;10.10;99.90;;;;;;5090912;28;20093;-63
2022/05/03 01:12:54;;;;;;;9.13;5.50;;;10.00;99.90;;;;;;5085651;28;20093;-63
2022/05/03 01:15:34;;;;;;;10.90;6.25;;;9.90;99.90;;;;;;5091685;28;20044;-63
2022/05/03 01:18:07;;;;;;;14.30;5.95;;;9.80;99.90;;;;;;5090807;28;20043;-63
2022/05/03 01:21:04;;;;;;;11.77;6.45;;;9.80;99.90;;;;;;5086613;28;20040;-63
2022/05/03 01:23:50;;;;;;;8.68;5.68;;;9.70;99.90;;;;;;5071381;28;20032;-63
2022/05/03 01:26:39;;;;;;;10.60;6.50;;;9.70;99.90;;;;;;5071139;28;20046;-63
2022/05/03 01:29:18;;;;;;;9.55;5.97;;;9.70;99.90;;;;;;5083113;28;20097;-63
2022/05/03 01:31:46;;;;;;;8.23;5.53;;;9.70;99.90;;;;;;5091268;28;20489;-63
2022/05/03 01:34:19;;;;;;;7.75;4.57;;;9.60;99.90;;;;;;5085583;28;20044;-63
2022/05/03 01:36:59;;;;;;;7.82;4.35;;;9.60;99.90;;;;;;5084385;28;20028;-63
2022/05/03 01:39:51;;;;;;;7.50;4.40;;;9.50;99.90;;;;;;5076462;28;20032;-63
2022/05/03 01:42:36;;;;;;;8.43;4.28;;;9.40;99.90;;;;;;5088692;28;20040;-63
2022/05/03 01:45:07;;;;;;;6.43;4.50;;;9.40;99.90;;;;;;5069130;28;20155;-63
2022/05/03 01:48:09;;;;;;;12.50;5.18;;;9.30;99.90;;;;;;5082748;28;20043;-63
2022/05/03 01:50:45;;;;;;;7.50;4.82;;;9.30;99.90;;;;;;5090869;28;20492;-63
2022/05/03 01:53:23;;;;;;;8.82;5.13;;;9.30;99.90;;;;;;5091221;28;20048;-63
2022/05/03 01:56:17;;;;;;;8.07;4.75;;;9.20;99.90;;;;;;5083575;28;20110;-63
2022/05/03 01:59:11;;;;;;;10.85;4.43;;;9.20;99.90;;;;;;5070984;28;20049;-63
2022/05/03 02:01:41;;;;;;;10.93;5.15;;;9.10;99.90;;;;;;5070540;28;20044;-63
2022/05/03 02:04:46;;;;;;;6.55;4.70;;;9.10;99.90;;;;;;5064582;28;20389;-63
2022/05/03 02:07:19;;;;;;;9.30;4.25;;;9.00;99.90;;;;;;5089103;28;20048;-63
2022/05/03 02:10:06;;;;;;;5.47;3.50;;;9.00;99.90;;;;;;5090522;28;20052;-63
2022/05/03 02:12:33;;;;;;;4.38;3.20;;;8.90;99.90;;;;;;5086100;28;20036;-63
2022/05/03 02:15:05;;;;;;;4.78;3.30;;;8.80;99.90;;;;;;5087358;28;20063;-63
2022/05/03 02:17:31;;;;;;;6.90;3.55;;;8.80;99.90;;;;;;5090846;28;20090;-63
2022/05/03 02:20:17;;;;;;;6.22;3.67;;;8.80;99.90;;;;;;5090038;28;20562;-63
2022/05/03 02:23:10;;;;;;;7.05;4.63;;;8.80;99.90;;;;;;5080285;28;20489;-63
2022/05/03 02:25:46;;;;;;;10.02;5.95;;;8.80;99.90;;;;;;5074192;28;20101;-63
2022/05/03 02:28:33;;;;;;;13.27;8.07;;;8.80;99.90;;;;;;5078259;28;20032;-64
2022/05/03 02:31:04;;;;;;;16.92;8.82;;;8.80;99.90;;;;;;5085624;28;20035;-63
2022/05/03 02:33:44;;;;;;;12.68;8.02;;;8.80;99.90;;;;;;5076124;28;20048;-63
2022/05/03 02:36:15;;;;;;;11.13;6.85;;;8.80;99.90;;;;;;5094095;28;20040;-64
2022/05/03 02:39:05;;;;;;;6.95;3.88;;;8.80;99.90;;;;;;5093827;28;20040;-63
2022/05/03 02:41:40;;;;;;;8.13;3.50;;;8.70;99.90;;;;;;5086187;28;20501;-63
2022/05/03 02:44:07;;;;;;;4.75;3.17;;;8.60;99.90;;;;;;5094303;28;20040;-63
2022/05/03 02:46:56;;;;;;;5.53;3.20;;;8.40;99.90;;;;;;5093263;28;20048;-63
2022/05/03 02:49:42;;;;;;;5.57;3.65;;;8.40;99.90;;;;;;5085352;28;20044;-64
2022/05/03 02:52:23;;;;;;;4.80;3.53;;;8.40;99.90;;;;;;5094078;28;20056;-63
2022/05/03 02:55:04;;;;;;;11.05;5.25;;;8.40;99.90;;;;;;5093416;28;20507;-63
2022/05/03 02:57:38;;;;;;;16.02;6.90;;;8.40;99.90;;;;;;5085892;28;20446;-63
2022/05/03 03:03:22;;;;;;;18.17;10.77;;;8.40;99.90;;;;;;5092727;28;20093;-63
2022/05/03 03:05:55;;;;;;;25.20;11.88;;;8.50;99.90;;;;;;5081711;28;20301;-63
2022/05/03 03:08:23;;;;;;;27.98;12.68;;;8.50;99.90;;;;;;5073361;28;20592;-63
2022/05/03 03:10:57;;;;;;;26.20;12.03;;;8.50;99.90;;;;;;5074487;28;20468;-63
2022/05/03 03:13:36;;;;;;;24.75;12.60;;;8.50;99.90;;;;;;5085070;28;20032;-63
2022/05/03 03:16:03;;;;;;;24.77;12.88;;;8.60;99.90;;;;;;5093515;28;20040;-63
2022/05/03 03:19:30;;;;;;;23.13;12.88;;;8.60;99.90;;;;;;5089077;22;20094;-61
2022/05/03 03:22:23;;;;;;;22.27;11.75;;;8.60;99.90;;;;;;5072867;28;20390;-59
2022/05/03 03:24:54;;;;;;;20.13;10.60;;;8.70;99.90;;;;;;5073217;28;20555;-62
2022/05/03 03:27:23;;;;;;;21.45;10.02;;;8.60;99.90;;;;;;5068905;28;20447;-62
2022/05/03 03:29:55;;;;;;;21.05;10.55;;;8.60;99.90;;;;;;5066029;28;20041;-62
2022/05/03 03:32:26;;;;;;;19.58;10.48;;;8.50;99.90;;;;;;5072354;28;20044;-62
2022/05/03 03:34:55;;;;;;;19.10;10.57;;;8.50;99.90;;;;;;5065379;28;20508;-62
2022/05/03 03:37:33;;;;;;;21.23;10.65;;;8.50;99.90;;;;;;5069234;28;20525;-62
2022/05/03 03:40:00;;;;;;;17.40;9.90;;;8.50;99.90;;;;;;5052403;28;20102;-62
2022/05/03 03:42:28;;;;;;;;;;;8.50;99.90;;;;;;5053273;28;20040;-62
2022/05/03 03:45:07;;;;;;;18.83;10.15;;;8.50;99.90;;;;;;5060541;28;19920;-62
2022/05/03 03:47:37;;;;;;;19.65;11.38;;;8.40;99.90;;;;;;5065542;28;20403;-62
2022/05/03 03:50:05;;;;;;;21.35;11.07;;;8.40;99.90;;;;;;5072380;28;20455;-62
2022/05/03 03:52:34;;;;;;;19.48;9.60;;;8.40;99.90;;;;;;5066902;28;20048;-62
2022/05/03 03:55:05;;;;;;;18.50;9.55;;;8.40;99.90;;;;;;5064144;28;20048;-62
2022/05/03 03:57:35;;;;;;;16.60;9.30;;;8.30;99.90;;;;;;5052522;28;20076;-62
2022/05/03 04:00:07;;;;;;;17.50;9.90;;;8.30;99.90;;;;;;5052775;28;20401;-62
2022/05/03 04:02:40;;;;;;;18.00;9.80;;;8.20;99.90;;;;;;5067746;28;20516;-62
2022/05/03 04:05:14;;;;;;;17.65;10.15;;;8.20;99.90;;;;;;5052178;28;20045;-62
2022/05/03 04:07:42;;;;;;;18.40;9.50;;;8.20;99.90;;;;;;5052418;28;20059;-62
2022/05/03 04:10:09;;;;;;;19.48;10.65;;;8.20;99.90;;;;;;5061664;28;20078;-62
2022/05/03 04:12:36;;;;;;;21.75;10.15;;;8.20;99.90;;;;;;5059054;28;20056;-62
2022/05/03 04:15:03;;;;;;;18.48;9.25;;;8.20;99.90;;;;;;5052189;28;20410;-62
2022/05/03 04:17:30;;;;;;;17.20;9.25;;;8.20;99.90;;;;;;5052545;28;20048;-62
2022/05/03 04:19:57;;;;;;;17.67;9.52;;;8.20;99.90;;;;;;5067527;28;20511;-62
2022/05/03 04:22:32;;;;;;;17.50;9.32;;;8.20;99.90;;;;;;5052445;28;20049;-62
2022/05/03 04:25:00;;;;;;;15.30;8.93;;;8.10;99.90;;;;;;5052022;28;20087;-62
2022/05/03 04:27:27;;;;;;;15.55;9.25;;;8.10;99.90;;;;;;5055932;28;20409;-62
2022/05/03 04:29:58;;;;;;;19.20;8.73;;;8.10;99.90;;;;;;5064026;28;20048;-62
2022/05/03 04:32:29;;;;;;;13.05;8.30;;;8.10;99.90;;;;;;5052018;28;20056;-62
2022/05/03 04:34:56;;;;;;;15.60;7.75;;;8.10;99.90;;;;;;5051648;28;20543;-62
2022/05/03 04:37:23;;;;;;;17.27;7.25;;;8.10;99.90;;;;;;5063427;28;20089;-62
2022/05/03 04:39:50;;;;;;;15.15;7.75;;;8.10;99.90;;;;;;5056396;28;20048;-61
2022/05/03 04:42:18;;;;;;;15.93;8.25;;;8.00;99.90;;;;;;5051756;28;20045;-62
2022/05/03 04:44:45;;;;;;;13.45;8.52;;;8.00;99.90;;;;;;5051489;28;20462;-62
2022/05/03 04:47:11;;;;;;;14.93;7.93;;;8.00;99.90;;;;;;5061626;28;20094;-62
2022/05/03 04:49:38;;;;;;;17.08;9.02;;;8.00;99.90;;;;;;5057680;28;20110;-62
2022/05/03 04:52:05;;;;;;;14.13;8.38;;;8.00;99.90;;;;;;5051651;28;20053;-62
2022/05/03 04:54:32;;;;;;;12.77;7.55;;;8.00;99.90;;;;;;5051549;28;20045;-61
2022/05/03 04:57:05;;;;;;;17.50;8.93;;;8.00;99.90;;;;;;5067427;28;20061;-61
2022/05/03 04:59:32;;;;;;;13.93;8.10;;;8.10;99.90;;;;;;5050984;28;20037;-61
2022/05/03 05:01:59;;;;;;;14.25;8.85;;;8.10;99.90;;;;;;5066916;28;20040;-61
2022/05/03 05:04:26;;;;;;;18.48;8.95;;;8.20;99.90;;;;;;5069868;28;20032;-61
2022/05/03 05:06:52;;;;;;;13.77;8.02;;;8.10;99.90;;;;;;5070865;28;20043;-61
2022/05/03 05:09:20;;;;;;;13.07;7.15;;;8.10;99.90;;;;;;5052951;28;20112;-61
2022/05/03 05:11:48;;;;;;;15.82;8.85;;;8.10;99.90;;;;;;5067529;28;20045;-61
2022/05/03 05:14:15;;;;;;;16.08;8.52;;;8.00;99.90;;;;;;5071007;28;20119;-61
2022/05/03 05:16:42;;;;;;;15.55;8.95;;;8.00;99.90;;;;;;5071324;28;20048;-61
2022/05/03 05:19:08;;;;;;;15.05;9.30;;;8.10;99.90;;;;;;5064533;28;20090;-61
2022/05/03 05:21:35;;;;;;;13.93;8.38;;;8.20;99.90;;;;;;5066182;28;20075;-61
2022/05/03 05:24:02;;;;;;;16.07;8.57;;;8.10;99.90;;;;;;5051177;28;20053;-61
2022/05/03 05:26:29;;;;;;;18.77;8.60;;;8.20;99.90;;;;;;5051274;28;20291;-61
2022/05/03 05:28:57;;;;;;;15.65;8.65;;;8.10;99.90;;;;;;5059395;28;20485;-61
2022/05/03 05:31:23;;;;;;;13.75;8.43;;;8.10;99.90;;;;;;5069940;28;20505;-61
2022/05/03 05:33:51;;;;;;;16.00;8.68;;;8.00;99.90;;;;;;5070544;28;20045;-61
2022/05/03 05:36:18;;;;;;;14.57;7.78;;;8.00;99.90;;;;;;5068862;28;20512;-61
2022/05/03 05:38:44;;;;;;;12.15;7.70;;;8.00;99.90;;;;;;5070723;28;20436;-61
2022/05/03 05:41:13;;;;;;;12.60;8.00;;;8.00;99.90;;;;;;5070655;28;20055;-61
2022/05/03 05:43:40;;;;;;;13.73;7.47;;;8.00;99.90;;;;;;5070955;28;20477;-61
2022/05/03 05:46:07;;;;;;;13.45;7.15;;;8.00;99.90;;;;;;5065902;28;20516;-61
2022/05/03 05:48:34;;;;;;;11.73;7.00;;;8.10;99.90;;;;;;5066424;28;20033;-61
2022/05/03 05:51:00;;;;;;;13.30;7.38;;;8.10;99.90;;;;;;5050639;28;20049;-61
2022/05/03 05:53:33;;;;;;;12.32;6.68;;;8.20;99.90;;;;;;5050955;28;20041;-61
2022/05/03 05:56:02;;;;;;;20.60;10.90;;;8.30;99.90;;;;;;5058946;28;20071;-61
2022/05/03 05:58:29;;;;;;;18.90;8.07;;;8.40;99.90;;;;;;5065484;28;20044;-61
2022/05/03 06:00:57;;;;;;;20.38;10.23;;;8.50;99.90;;;;;;5056767;28;20060;-61
2022/05/03 06:03:25;;;;;;;12.93;7.35;;;8.50;99.90;;;;;;5072933;28;20420;-62
2022/05/03 06:05:52;;;;;;;8.70;5.78;;;8.50;99.90;;;;;;5069732;28;20047;-62
2022/05/03 06:08:19;;;;;;;13.90;6.30;;;8.60;99.90;;;;;;5055600;28;20056;-62
2022/05/03 06:10:46;;;;;;;11.45;6.55;;;8.70;99.90;;;;;;5054249;28;20163;-62
2022/05/03 06:13:13;;;;;;;11.85;6.15;;;8.80;99.90;;;;;;5064769;28;20045;-62
2022/05/03 06:15:40;;;;;;;11.70;6.20;;;8.90;99.90;;;;;;5060776;28;20048;-62
2022/05/03 06:18:08;;;;;;;15.80;7.03;;;8.90;99.90;;;;;;5054165;28;20056;-62
2022/05/03 06:20:36;;;;;;;16.48;7.00;;;9.00;99.90;;;;;;5054053;28;20765;-62
2022/05/03 06:23:05;;;;;;;13.32;7.07;;;9.20;99.90;;;;;;5063685;28;20135;-62
2022/05/03 06:25:32;;;;;;;10.48;6.70;;;9.30;99.90;;;;;;5061589;28;20053;-62
2022/05/03 06:27:59;;;;;;;12.82;7.00;;;9.40;99.90;;;;;;5054181;28;20040;-62
2022/05/03 06:30:25;;;;;;;11.82;6.68;;;9.50;99.90;;;;;;5053884;28;20559;-62
2022/05/03 06:32:52;;;;;;;11.48;6.70;;;9.60;99.90;;;;;;5069630;28;20044;-62
2022/05/03 06:35:19;;;;;;;11.52;7.00;;;9.60;99.90;;;;;;5055095;28;20087;-62
2022/05/03 06:37:46;;;;;;;8.60;6.70;;;9.50;99.90;;;;;;5053836;28;20048;-62
2022/05/03 06:40:13;;;;;;;10.50;6.88;;;9.70;99.90;;;;;;5055802;28;20037;-62
2022/05/03 06:42:40;;;;;;;9.20;5.97;;;9.90;99.90;;;;;;5068611;28;20095;-62
2022/05/03 06:45:08;;;;;;;11.30;6.70;;;10.10;99.90;;;;;;5054013;28;20086;-62
2022/05/03 06:47:42;;;;;;;13.48;6.70;;;10.30;99.90;;;;;;5054180;28;20563;-62
2022/05/03 06:50:10;;;;;;;20.63;7.20;;;10.50;99.90;;;;;;5052241;28;20051;-62
2022/05/03 06:52:36;;;;;;;9.90;5.78;;;10.70;99.90;;;;;;5053909;28;20051;-62
2022/05/03 06:55:04;;;;;;;11.07;5.53;;;10.70;99.90;;;;;;5053799;28;20090;-62
2022/05/03 06:57:31;;;;;;;;;;;10.80;99.90;;;;;;5066386;28;20090;-62
2022/05/03 07:00:01;;;;;;;9.10;6.60;;;10.90;99.90;;;;;;5057066;28;19925;-62
2022/05/03 07:02:30;;;;;;;9.05;5.32;;;11.00;99.90;;;;;;5053799;28;20044;-62
2022/05/03 07:05:01;;;;;;;12.77;5.68;;;11.10;99.90;;;;;;5054100;28;20516;-62
2022/05/03 07:07:28;;;;;;;7.30;5.22;;;11.30;99.90;;;;;;5061817;28;20036;-61
2022/05/03 07:10:01;;;;;;;8.30;4.50;;;11.40;99.90;;;;;;5052798;28;20087;-61
2022/05/03 07:12:29;;;;;;;8.23;5.25;;;11.50;99.90;;;;;;5053284;28;20080;-62
2022/05/03 07:14:59;;;;;;;;;;;11.60;99.90;;;;;;5061823;28;20098;-61
2022/05/03 07:22:58;;;;;;;7.80;4.95;;;11.90;99.90;;;;;;5053199;28;20032;-61
2022/05/03 07:25:25;;;;;;;8.52;4.68;;;12.10;99.90;;;;;;5072849;28;20409;-62
2022/05/03 07:27:53;;;;;;;8.20;4.13;;;12.20;99.90;;;;;;5057812;28;20508;-61
2022/05/03 07:30:20;;;;;;;6.22;3.88;;;12.40;99.90;;;;;;5052826;28;20055;-62
2022/05/03 07:32:47;;;;;;;7.25;4.15;;;12.40;99.90;;;;;;5059330;28;20055;-61
2022/05/03 07:35:14;;;;;;;5.70;4.45;;;12.40;99.90;;;;;;5062588;28;20095;-61
2022/05/03 07:37:41;;;;;;;6.90;4.18;;;12.60;99.90;;;;;;5053030;28;20041;-62
2022/05/03 07:40:09;;;;;;;5.60;4.25;;;12.70;99.90;;;;;;5053927;28;20050;-62
2022/05/03 07:42:36;;;;;;;6.40;4.68;;;12.90;99.90;;;;;;5068114;28;20048;-61
2022/05/03 07:45:04;;;;;;;7.22;5.00;;;13.10;99.90;;;;;;5052536;28;20064;-61
2022/05/03 07:47:30;;;;;;;;;;;13.10;99.90;;;;;;5053169;28;20056;-61
2022/05/03 07:49:57;;;;;;;6.05;4.00;;;13.30;99.90;;;;;;5060342;28;19989;-62
2022/05/03 07:52:24;;;;;;;5.43;3.63;;;13.30;99.90;;;;;;5061073;28;20044;-62
2022/05/03 07:54:51;;;;;;;5.80;3.53;;;13.40;99.90;;;;;;5052611;28;20052;-62
2022/05/03 07:57:18;;;;;;;7.18;3.60;;;13.50;99.90;;;;;;5055248;28;20383;-59
2022/05/03 07:59:45;;;;;;;5.85;3.78;;;13.80;99.90;;;;;;5066023;28;20041;-62
2022/05/03 08:02:12;;;;;;;4.32;3.58;;;13.70;99.90;;;;;;5052612;28;20060;-62
2022/05/03 08:04:39;;;;;;;5.47;3.42;;;13.80;99.90;;;;;;5052378;28;20451;-62
2022/05/03 08:07:06;;;;;;;4.35;3.53;;;14.00;99.90;;;;;;5061845;28;20083;-62
2022/05/03 08:09:36;;;;;;;6.05;3.83;;;14.20;99.90;;;;;;5059268;28;20049;-62
2022/05/03 08:12:04;;;;;;;5.15;2.97;;;14.20;99.90;;;;;;5052294;28;20044;-62
2022/05/03 08:14:31;;;;;;;8.32;3.10;;;14.30;99.90;;;;;;5056579;28;20044;-62
2022/05/03 08:17:01;;;;;;;10.63;3.55;;;14.50;99.90;;;;;;5063646;28;20405;-62
2022/05/03 08:19:28;;;;;;;8.30;3.35;;;14.60;99.90;;;;;;5051672;28;20124;-62
2022/05/03 08:21:56;;;;;;;6.50;3.17;;;14.80;99.90;;;;;;5051788;28;20040;-61
2022/05/03 08:24:24;;;;;;;7.10;3.22;;;14.90;99.90;;;;;;5055562;28;20546;-62
2022/05/03 08:26:51;;;;;;;3.72;2.60;;;14.90;99.90;;;;;;5064977;28;20049;-62
2022/05/03 08:29:19;;;;;;;;;;;14.90;99.90;;;;;;5052264;28;20406;-62
2022/05/03 08:31:46;;;;;;;6.20;3.15;;;14.90;99.90;;;;;;5061811;28;19932;-61
2022/05/03 08:34:13;;;;;;;5.03;3.50;;;14.80;99.90;;;;;;5068831;28;20060;-61
2022/05/03 08:36:40;;;;;;;3.53;2.78;;;14.80;99.90;;;;;;5071186;28;20091;-61
2022/05/03 08:42:01;;;;;;;11.10;3.22;;;15.10;99.90;;;;;;5068948;28;20067;-61
2022/05/03 08:44:29;;;;;;;5.15;3.30;;;15.20;99.90;;;;;;5063522;28;20158;-61
2022/05/03 08:46:57;;;;;;;8.70;3.78;;;15.20;99.90;;;;;;5071565;28;20098;-61
2022/05/03 08:49:29;;;;;;;4.43;3.50;;;15.30;99.90;;;;;;5071291;28;20041;-61
2022/05/03 08:52:00;;;;;;;3.72;3.10;;;15.30;99.90;;;;;;5066030;28;20028;-61
2022/05/03 08:54:28;;;;;;;6.75;3.75;;;15.30;99.90;;;;;;5063005;28;20041;-61
2022/05/03 08:56:55;;;;;;;7.20;3.80;;;15.40;99.90;;;;;;5071180;28;20094;-61
2022/05/03 08:59:24;;;;;;;4.40;3.60;;;15.50;99.90;;;;;;5065672;28;20053;-61
2022/05/03 09:01:51;;;;;;;12.07;3.58;;;15.60;99.90;;;;;;5064345;28;20048;-61
2022/05/03 09:04:17;;;;;;;4.28;3.30;;;15.70;99.90;;;;;;5051552;28;20463;-61
2022/05/03 09:06:50;;;;;;;9.50;3.80;;;15.80;99.90;;;;;;5051680;28;20048;-61
2022/05/03 09:09:19;;;;;;;4.60;3.42;;;15.80;99.90;;;;;;5067357;28;20051;-62
2022/05/03 09:11:48;;;;;;;5.10;3.58;;;15.80;99.90;;;;;;5051078;28;20071;-61
2022/05/03 09:14:38;;;;;;;6.70;3.72;;;15.90;99.90;;;;;;5051148;28;20658;-61
2022/05/03 09:17:05;;;;;;;6.47;3.38;;;16.10;99.90;;;;;;5067354;28;20059;-61
2022/05/03 09:26:18;;;;;;;7.63;3.90;;;16.30;99.90;;;;;;5079445;28;20116;-63
2022/05/03 09:28:56;;;;;;;5.20;3.00;;;16.40;99.90;;;;;;5084772;28;20051;-63
2022/05/03 09:31:30;;;;;;;5.68;3.60;;;16.60;99.90;;;;;;5081322;28;20105;-63
2022/05/03 09:33:59;;;;;;;9.73;3.53;;;16.90;99.90;;;;;;5081990;28;20044;-63
2022/05/03 09:36:26;;;;;;;3.63;2.95;;;17.10;99.90;;;;;;5084100;28;20043;-63
2022/05/03 09:39:29;;;;;;;4.10;2.92;;;17.10;99.90;;;;;;5087110;28;20098;-63
2022/05/03 09:42:06;;;;;;;5.35;3.15;;;17.20;99.90;;;;;;5066704;28;20032;-63
2022/05/03 09:44:53;;;;;;;5.60;3.17;;;17.50;99.90;;;;;;5084915;28;20040;-63
2022/05/03 09:47:23;;;;;;;6.00;3.00;;;17.60;99.90;;;;;;5087497;28;20028;-63
2022/05/03 09:49:50;;;;;;;3.58;2.80;;;17.90;99.90;;;;;;5085722;28;20127;-63
2022/05/03 09:52:29;;;;;;;3.97;2.90;;;18.10;99.90;;;;;;5082903;28;20056;-61
2022/05/03 09:55:03;;;;;;;8.45;3.08;;;18.40;99.90;;;;;;5085737;28;20127;-64
2022/05/03 09:57:40;;;;;;;6.65;3.10;;;18.50;99.90;;;;;;5085359;28;20048;-62
2022/05/03 10:00:09;;;;;;;5.50;3.00;;;18.50;99.90;;;;;;5084607;28;20047;-62
2022/05/03 10:02:40;;;;;;;7.00;3.22;;;18.70;99.90;;;;;;5067503;28;20132;-62
2022/05/03 10:05:12;;;;;;;2.88;2.58;;;18.80;99.90;;;;;;5087933;28;20090;-62
2022/05/03 10:07:43;;;;;;;3.45;2.50;;;18.90;99.90;;;;;;5079485;28;20040;-62
2022/05/03 10:10:10;;;;;;;4.63;2.40;;;19.00;99.90;;;;;;5083978;28;20476;-62
2022/05/03 10:12:37;;;;;;;4.65;2.20;;;19.10;99.90;;;;;;5086225;28;20044;-63
2022/05/03 10:15:05;;;;;;;3.65;2.30;;;19.20;99.90;;;;;;5090188;28;20043;-63
2022/05/03 10:20:40;;;;;;;6.00;2.58;;;19.50;99.90;;;;;;5093164;28;20493;-63
2022/05/03 10:23:32;;;;;;;4.80;2.58;;;19.90;99.90;;;;;;5094463;28;20047;-63
2022/05/03 10:26:01;;;;;;;7.05;2.20;;;20.00;99.90;;;;;;5094491;28;20052;-63
2022/05/03 10:29:00;;;;;;;2.80;2.47;;;20.40;99.90;;;;;;5093787;28;20040;-63
2022/05/03 10:31:27;;;;;;;10.48;1.92;;;20.40;99.90;;;;;;5075522;28;20056;-63
2022/05/03 10:33:55;;;;;;;;;;;20.30;99.90;;;;;;5094709;28;20580;-63
2022/05/03 10:36:31;;;;;;;5.82;2.13;;;20.40;99.90;;;;;;5094456;28;20295;-63
2022/05/03 10:39:21;;;;;;;8.13;1.90;;;20.10;99.90;;;;;;5093420;28;20044;-63
2022/05/03 10:41:54;;;;;;;2.78;1.75;;;20.10;99.90;;;;;;5088483;28;20040;-63
2022/05/03 10:44:52;;;;;;;4.53;2.30;;;20.00;99.90;;;;;;5093618;28;20119;-63
2022/05/03 10:47:38;;;;;;;3.03;1.60;;;19.90;99.90;;;;;;5071701;28;20497;-63
2022/05/03 10:50:20;;;;;;;3.78;1.50;;;20.00;99.90;;;;;;5084058;28;20093;-63
2022/05/03 10:52:56;;;;;;;2.92;1.83;;;20.10;99.90;;;;;;5086443;28;20069;-63
2022/05/03 10:55:24;;;;;;;7.30;1.85;;;20.50;99.90;;;;;;5093063;28;20119;-63
2022/05/03 10:58:20;;;;;;;13.55;2.40;;;20.50;99.90;;;;;;5093972;28;20595;-63
2022/05/03 11:01:21;;;;;;;6.40;2.05;;;20.70;99.90;;;;;;5091827;28;20062;-63
2022/05/03 11:03:48;;;;;;;3.08;1.60;;;20.90;99.90;;;;;;5093318;28;20040;-63
2022/05/03 11:06:18;;;;;;;5.88;1.83;;;20.90;99.20;;;;;;5093370;28;20139;-63
2022/05/03 11:09:18;;;;;;;2.55;1.70;;;21.00;99.90;;;;;;5093089;28;20044;-63
2022/05/03 11:11:52;;;;;;;4.20;1.58;;;21.20;99.90;;;;;;5092903;28;20130;-63
2022/05/03 11:14:21;;;;;;;11.38;1.95;;;21.20;99.90;;;;;;5092522;28;20044;-64
2022/05/03 11:17:05;;;;;;;3.47;1.73;;;21.00;99.90;;;;;;5093481;28;20515;-63
2022/05/03 11:19:33;;;;;;;4.43;1.95;;;20.70;99.90;;;;;;5092556;28;20485;-63
2022/05/03 11:22:00;;;;;;;3.25;1.63;;;20.40;99.90;;;;;;5089635;28;20094;-63
2022/05/03 11:24:32;;;;;;;4.72;1.40;;;20.20;99.90;;;;;;5093578;28;20035;-63
2022/05/03 11:27:09;;;;;;;2.30;1.70;;;20.40;99.90;;;;;;5093393;28;20051;-63
2022/05/03 11:29:39;;;;;;;2.83;1.73;;;20.70;99.90;;;;;;5089493;28;20496;-63
2022/05/03 11:32:06;;;;;;;3.03;1.48;;;20.70;99.90;;;;;;5093024;28;20040;-63
2022/05/03 11:34:33;;;;;;;6.80;1.80;;;20.60;99.90;;;;;;5093195;28;20052;-63
2022/05/03 11:37:02;;;;;;;;;;;20.40;99.80;;;;;;5093671;28;20047;-64
2022/05/03 11:39:29;;;;;;;1.77;1.48;;;20.40;99.00;;;;;;5084574;28;19931;-63
2022/05/03 11:41:56;;;;;;;;;;;20.10;99.90;;;;;;5093246;28;20047;-63
2022/05/03 11:44:23;;;;;;;4.15;1.60;;;20.00;99.90;;;;;;5079743;28;19927;-63
2022/05/03 11:46:50;;;;;;;5.47;1.55;;;19.60;99.90;;;;;;5072744;28;20068;-64
2022/05/03 11:49:17;;;;;;;8.25;1.50;;;19.30;99.90;;;;;;5087637;28;20492;-63
2022/05/03 11:57:33;;;;;;;5.13;1.92;;;18.70;99.90;;;;;;5086144;28;20715;-63
2022/05/03 12:00:03;;;;;;;3.33;1.95;;;18.50;99.90;;;;;;5092055;28;20401;-63
2022/05/03 12:02:38;;;;;;;2.85;1.80;;;18.50;99.90;;;;;;5092843;28;20570;-63
2022/05/03 12:05:04;;;;;;;2.30;1.50;;;18.40;99.90;;;;;;5092638;28;20040;-64
2022/05/03 12:07:36;;;;;;;1.67;1.50;;;18.40;99.90;;;;;;5092035;28;20111;-63
2022/05/03 12:10:19;;;;;;;2.92;1.90;;;18.40;99.90;;;;;;5082152;28;20043;-63
2022/05/03 12:12:48;;;;;;;4.70;1.60;;;18.40;99.90;;;;;;5092713;28;20040;-64
2022/05/03 12:15:19;;;;;;;1.92;1.35;;;18.50;99.90;;;;;;5091677;28;20504;-63
2022/05/03 12:18:03;;;;;;;1.88;1.48;;;18.40;99.90;;;;;;5086162;28;20377;-63
2022/05/03 12:20:48;;;;;;;4.00;1.50;;;18.40;99.90;;;;;;5081307;28;20135;-63
2022/05/03 12:23:34;;;;;;;4.10;1.40;;;18.40;99.90;;;;;;5080673;28;20040;-63
2022/05/03 12:26:20;;;;;;;2.17;1.42;;;18.50;99.90;;;;;;5088362;28;20557;-63
2022/05/03 12:28:53;;;;;;;1.55;1.40;;;18.60;99.90;;;;;;5087315;28;20051;-63
2022/05/03 12:31:21;;;;;;;3.47;1.67;;;18.60;99.90;;;;;;5095295;28;20040;-63
2022/05/03 12:33:53;;;;;;;3.08;1.50;;;18.70;99.90;;;;;;5087316;28;20514;-63
2022/05/03 12:36:27;;;;;;;3.20;1.23;;;18.80;99.90;;;;;;5093241;28;20036;-63
2022/05/03 12:38:54;;;;;;;5.50;1.55;;;19.20;99.90;;;;;;5094994;28;20557;-63
2022/05/03 12:41:28;;;;;;;2.92;1.55;;;19.60;99.90;;;;;;5087572;28;20132;-63
2022/05/03 12:44:15;;;;;;;4.43;1.52;;;19.90;99.90;;;;;;5082516;28;20044;-63
2022/05/03 12:46:43;;;;;;;2.00;1.85;;;20.00;99.90;;;;;;5093483;28;20051;-63
2022/05/03 12:49:12;;;;;;;3.80;1.70;;;19.90;99.90;;;;;;5088428;28;20577;-63
2022/05/03 12:51:43;;;;;;;2.92;1.92;;;19.60;99.90;;;;;;5088122;28;20589;-62
2022/05/03 12:54:11;;;;;;;3.50;1.70;;;19.50;99.90;;;;;;5086355;28;20051;-63
2022/05/03 12:59:26;;;;;;;4.00;2.00;;;19.40;99.90;;;;;;5085040;28;20101;-63
2022/05/03 13:01:57;;;;;;;3.78;1.73;;;19.40;99.90;;;;;;5091904;28;20044;-63
2022/05/03 13:04:26;;;;;;;4.72;1.60;;;19.40;99.90;;;;;;5088222;28;20051;-63
2022/05/03 13:06:53;;;;;;;2.35;1.90;;;19.40;99.90;;;;;;5075759;28;20051;-63
2022/05/03 13:09:20;;;;;;;;;;;19.50;99.90;;;;;;5084380;28;20044;-63
2022/05/03 13:11:53;;;;;;;5.88;1.95;;;19.50;99.90;;;;;;5093774;28;19924;-62
2022/05/03 13:14:20;;;;;;;3.15;1.90;;;19.40;99.90;;;;;;5087625;28;20044;-63
2022/05/03 13:16:48;;;;;;;5.22;2.10;;;19.50;99.90;;;;;;5084619;28;20102;-63
2022/05/03 13:19:15;;;;;;;2.10;1.60;;;19.70;99.90;;;;;;5084838;28;20044;-63
2022/05/03 13:21:42;;;;;;;3.55;2.25;;;19.90;99.90;;;;;;5090633;28;20047;-63
2022/05/03 13:24:10;;;;;;;3.72;1.77;;;20.10;99.90;;;;;;5086032;28;20044;-63
2022/05/03 13:26:38;;;;;;;2.42;1.75;;;20.10;99.90;;;;;;5091059;28;20408;-63
2022/05/03 13:29:10;;;;;;;2.65;1.80;;;20.10;99.90;;;;;;5085710;28;20044;-63
2022/05/03 13:31:38;;;;;;;1.52;1.40;;;20.00;99.90;;;;;;5092786;28;20512;-63
2022/05/03 13:34:09;;;;;;;6.03;1.90;;;19.90;99.90;;;;;;5064792;28;20492;-63
2022/05/03 13:42:09;;;;;;;4.10;1.60;;;19.70;99.90;;;;;;5083921;28;20047;-63
2022/05/03 13:44:37;;;;;;;1.83;1.20;;;19.70;98.90;;;;;;5085911;28;20097;-63
2022/05/03 13:47:08;;;;;;;3.03;1.40;;;19.60;98.30;;;;;;5090546;28;20054;-63
2022/05/03 13:49:35;;;;;;;2.70;1.50;;;19.70;98.30;;;;;;5071031;28;20146;-63
2022/05/03 13:52:03;;;;;;;2.33;1.15;;;20.10;98.30;;;;;;5090726;28;20048;-63
2022/05/03 13:54:29;;;;;;;3.10;1.20;;;20.70;98.10;;;;;;5085311;28;20054;-63